Terminal Aerodrome Forecast
Issued by NWS Jacksonville, FL

Home | Current Version | Previous Version | Text Only | Print | Product List | Glossary On
Versions: 1 2 3 4 5 6 7 8 9 10 11
265
FTUS42 KJAX 230701 AAB
TAFJAX
TAF AMD
KJAX 230701Z 2307/2406 20003KT P6SM BKN070
     FM231400 21007KT P6SM BKN050
     FM231800 15011KT P6SM VCTS BKN040CB
     FM232300 17008KT P6SM VCSH BKN035=

USA.gov is the U.S. government's official web portal to all federal, state and local government web resources and services.